Time;durP1;ratioP1;P1;durP2;ratioP2;P2;SDS_P1;SDS_P2;PMS_P1;PMS_P2;Temp;Humidity;BMP_temperature;BMP_pressure;BME280_temperature;BME280_humidity;BME280_pressure;Samples;Min_cycle;Max_cycle;Signal;HPM_P1;HPM_P2
2023/07/22 00:00:11;;;;;;;15.13;8.77;;;;;;;19.21;94.68;97695.81;4366175;32;20121;-80
2023/07/22 00:02:38;;;;;;;18.17;9.02;;;;;;;19.11;96.32;97700.97;4366368;32;20145;-79
2023/07/22 00:05:05;;;;;;;16.33;9.32;;;;;;;18.84;98.52;97713.72;4366331;32;20107;-79
2023/07/22 00:07:33;;;;;;;15.82;9.27;;;;;;;19.07;96.92;97700.41;4364711;32;20086;-79
2023/07/22 00:10:00;;;;;;;15.27;9.13;;;;;;;19.05;97.97;97697.09;4366290;32;20117;-79
2023/07/22 00:12:27;;;;;;;17.90;9.38;;;;;;;19.00;97.46;97699.25;4366102;32;20102;-79
2023/07/22 00:14:54;;;;;;;17.02;8.82;;;;;;;19.37;95.55;97697.03;4366099;32;20099;-79
2023/07/22 00:17:21;;;;;;;18.05;9.77;;;;;;;18.95;98.87;97701.44;4366464;32;20067;-79
2023/07/22 00:19:48;;;;;;;17.00;9.52;;;;;;;19.05;97.85;97694.50;4366421;32;20160;-79
2023/07/22 00:22:15;;;;;;;15.15;9.27;;;;;;;18.76;100.00;97707.31;4366203;32;20331;-79
2023/07/22 00:24:42;;;;;;;16.12;10.40;;;;;;;18.46;100.00;97715.81;4366188;32;20102;-79
2023/07/22 00:27:09;;;;;;;19.20;9.90;;;;;;;18.76;100.00;97725.62;4366410;32;20083;-79
2023/07/22 00:29:36;;;;;;;19.45;10.57;;;;;;;18.86;100.00;97730.94;4365864;32;20146;-79
2023/07/22 00:32:07;;;;;;;22.90;10.38;;;;;;;19.03;100.00;97730.41;4366284;32;20478;-79
2023/07/22 00:34:34;;;;;;;17.00;10.23;;;;;;;19.25;100.00;97739.91;4364939;32;20174;-79
2023/07/22 00:37:01;;;;;;;17.40;9.88;;;;;;;18.87;100.00;97740.44;4366276;32;20095;-79
2023/07/22 00:39:28;;;;;;;15.40;9.35;;;;;;;19.16;100.00;97745.91;4366366;32;20464;-79
2023/07/22 00:41:55;;;;;;;15.13;8.82;;;;;;;19.30;99.12;97749.97;4365868;32;20126;-79
2023/07/22 00:44:22;;;;;;;14.95;9.32;;;;;;;19.00;100.00;97748.09;4366443;32;20091;-79
2023/07/22 00:46:49;;;;;;;17.20;9.85;;;;;;;19.00;100.00;97748.94;4366255;32;20127;-79
2023/07/22 00:49:17;;;;;;;19.58;9.35;;;;;;;19.45;97.91;97750.47;4364737;32;20111;-79
2023/07/22 00:51:44;;;;;;;17.10;8.90;;;;;;;19.28;97.70;97755.34;4365339;32;20138;-79
2023/07/22 00:54:11;;;;;;;15.27;9.52;;;;;;;19.29;96.96;97751.78;4366117;32;20117;-79
2023/07/22 00:56:39;;;;;;;17.05;9.43;;;;;;;19.32;97.88;97742.84;4365677;32;20082;-80
2023/07/22 00:59:06;;;;;;;13.75;8.73;;;;;;;19.69;95.99;97737.19;4366202;32;20110;-79
2023/07/22 01:01:33;;;;;;;13.85;8.57;;;;;;;19.22;97.31;97726.25;4366366;32;20117;-79
2023/07/22 01:04:01;;;;;;;15.85;8.63;;;;;;;19.79;95.65;97736.28;4365802;32;20454;-79
2023/07/22 01:06:30;;;;;;;13.62;8.93;;;;;;;19.83;94.57;97737.66;4366219;32;20464;-79
2023/07/22 01:08:57;;;;;;;16.60;8.57;;;;;;;19.73;94.61;97743.81;4366235;32;20099;-79
2023/07/22 01:11:25;;;;;;;15.60;8.90;;;;;;;19.51;95.98;97756.03;4364703;32;20170;-80
2023/07/22 01:13:57;;;;;;;16.80;9.27;;;;;;;19.18;97.61;97756.22;4366317;32;20081;-79
2023/07/22 01:16:26;;;;;;;16.15;8.77;;;;;;;19.26;97.62;97762.50;4365906;32;20506;-79
2023/07/22 01:18:55;;;;;;;15.68;8.80;;;;;;;19.13;96.85;97764.44;4365928;32;20095;-79
2023/07/22 01:21:25;;;;;;;15.60;8.93;;;;;;;19.23;97.30;97767.13;4365013;32;20166;-79
2023/07/22 01:23:53;;;;;;;14.85;8.45;;;;;;;19.39;94.82;97761.47;4364873;32;20095;-79
2023/07/22 01:26:20;;;;;;;14.82;9.02;;;;;;;19.27;95.56;97777.22;4365959;32;20146;-79
2023/07/22 01:28:47;;;;;;;14.52;9.07;;;;;;;19.19;97.00;97779.62;4365691;32;20102;-79
2023/07/22 01:31:14;;;;;;;14.30;8.85;;;;;;;19.51;94.76;97782.22;4365565;32;20698;-79
2023/07/22 01:33:40;;;;;;;15.32;8.38;;;;;;;19.79;93.25;97786.00;4366130;32;20104;-79
2023/07/22 01:36:07;;;;;;;12.95;8.20;;;;;;;19.58;94.31;97786.03;4365998;32;20142;-79
2023/07/22 01:38:35;;;;;;;16.40;8.75;;;;;;;19.41;94.58;97783.94;4365567;32;20095;-79
2023/07/22 01:41:02;;;;;;;18.65;8.70;;;;;;;19.22;95.96;97787.22;4365992;32;20084;-79
2023/07/22 01:43:29;;;;;;;15.10;8.35;;;;;;;19.33;95.45;97794.19;4365823;32;20110;-79
2023/07/22 01:45:56;;;;;;;14.30;8.15;;;;;;;20.01;91.22;97797.28;4365410;32;20139;-80
2023/07/22 01:48:23;;;;;;;14.02;8.85;;;;;;;19.71;91.90;97798.91;4365706;32;20106;-79
2023/07/22 01:50:50;;;;;;;13.48;8.07;;;;;;;19.83;90.41;97791.81;4365807;32;20157;-79
2023/07/22 01:53:17;;;;;;;13.45;8.27;;;;;;;19.45;93.05;97787.94;4363190;32;20635;-80
2023/07/22 01:55:44;;;;;;;15.77;8.48;;;;;;;19.21;94.74;97795.19;4365337;32;20087;-79
2023/07/22 01:58:12;;;;;;;15.57;8.93;;;;;;;19.21;94.79;97797.81;4365881;32;20488;-79
2023/07/22 02:00:39;;;;;;;13.15;8.70;;;;;;;19.35;94.17;97797.50;4365553;32;20109;-79
2023/07/22 02:03:06;;;;;;;14.55;8.55;;;;;;;19.26;94.31;97791.25;4365745;32;20170;-79
2023/07/22 02:05:33;;;;;;;17.48;8.77;;;;;;;19.41;93.09;97797.00;4365510;32;20063;-79
2023/07/22 02:08:00;;;;;;;17.37;8.60;;;;;;;19.47;92.52;97812.22;4365614;32;20112;-79
2023/07/22 02:10:27;;;;;;;13.75;8.20;;;;;;;19.06;94.06;97815.59;4365776;32;20158;-79
2023/07/22 02:12:53;;;;;;;16.23;8.50;;;;;;;19.02;93.55;97822.00;4365004;32;20599;-79
2023/07/22 02:15:22;;;;;;;16.42;9.13;;;;;;;18.70;96.21;97828.03;4365277;32;20091;-79
2023/07/22 02:17:48;;;;;;;16.02;9.18;;;;;;;18.86;95.36;97843.34;4364921;32;20095;-79
2023/07/22 02:20:15;;;;;;;18.02;8.90;;;;;;;18.85;95.56;97836.44;4365096;32;20141;-79
2023/07/22 02:22:42;;;;;;;14.98;9.65;;;;;;;18.91;95.85;97841.16;4365197;32;20114;-79
2023/07/22 02:25:10;;;;;;;18.27;9.80;;;;;;;18.83;97.53;97842.75;4365173;32;20175;-79
2023/07/22 02:27:38;;;;;;;15.82;10.27;;;;;;;18.71;98.55;97847.97;4364695;32;20123;-79
2023/07/22 02:30:09;;;;;;;19.90;10.02;;;;;;;18.79;99.46;97842.16;4365101;32;20099;-79
2023/07/22 02:32:38;;;;;;;17.80;10.85;;;;;;;18.55;100.00;97857.13;4364649;32;20111;-79
2023/07/22 02:35:07;;;;;;;17.40;10.18;;;;;;;18.62;100.00;97853.91;4364580;32;20435;-80
2023/07/22 02:37:37;;;;;;;18.70;10.25;;;;;;;18.94;98.92;97850.56;4364649;32;20162;-79
2023/07/22 02:40:07;;;;;;;16.98;10.15;;;;;;;18.93;99.17;97844.50;4363715;32;20484;-79
2023/07/22 02:42:35;;;;;;;19.40;10.20;;;;;;;18.46;100.00;97848.22;4364345;32;20106;-80
2023/07/22 02:45:03;;;;;;;17.52;10.80;;;;;;;18.64;100.00;97853.78;4364568;32;20146;-79
2023/07/22 02:47:32;;;;;;;16.37;10.25;;;;;;;18.84;100.00;97844.41;4364301;32;20118;-79
2023/07/22 02:49:59;;;;;;;15.75;10.18;;;;;;;19.41;99.94;97851.94;4364340;32;20095;-79
2023/07/22 02:52:26;;;;;;;17.02;10.02;;;;;;;19.35;99.22;97852.44;4364391;32;20494;-79
2023/07/22 02:55:18;;;;;;;15.20;9.57;;;;;;;19.45;98.48;97844.66;4364183;32;20162;-79
2023/07/22 02:57:46;;;;;;;19.37;9.70;;;;;;;19.67;96.25;97851.63;4364583;32;20165;-79
2023/07/22 03:00:23;;;;;;;13.88;9.18;;;;;;;19.62;96.49;97850.22;4359728;32;163898;-79
2023/07/22 03:02:52;;;;;;;18.10;9.55;;;;;;;19.51;97.14;97858.09;4364750;32;20087;-79
2023/07/22 03:05:21;;;;;;;16.45;10.07;;;;;;;19.18;100.00;97864.28;4366657;32;20091;-79
2023/07/22 03:07:48;;;;;;;14.90;9.55;;;;;;;18.93;100.00;97865.44;4366880;32;20102;-79
2023/07/22 03:10:15;;;;;;;16.80;9.60;;;;;;;19.12;100.00;97869.16;4366947;32;20091;-80
2023/07/22 03:12:41;;;;;;;14.38;9.35;;;;;;;19.19;100.00;97881.63;4366988;32;20149;-79
2023/07/22 03:15:09;;;;;;;16.35;8.18;;;;;;;19.06;100.00;97879.19;4367190;32;20166;-79
2023/07/22 03:17:36;;;;;;;18.33;8.77;;;;;;;19.19;100.00;97884.25;4367070;32;20122;-79
2023/07/22 03:20:18;;;;;;;15.85;9.07;;;;;;;19.30;100.00;97883.38;4366386;32;20102;-79
2023/07/22 03:22:46;;;;;;;15.43;8.70;;;;;;;19.14;100.00;97893.41;4367292;32;20173;-79
2023/07/22 03:25:16;;;;;;;18.42;8.65;;;;;;;19.11;100.00;97896.28;4367355;32;20127;-79
2023/07/22 03:27:45;;;;;;;15.57;8.82;;;;;;;19.42;100.00;97902.50;4367095;32;20107;-79
2023/07/22 03:30:16;;;;;;;15.82;8.77;;;;;;;19.39;100.00;97900.13;4366904;32;20106;-80
2023/07/22 03:32:45;;;;;;;10.95;6.80;;;;;;;19.68;99.64;97906.47;4367333;32;20082;-79
2023/07/22 03:35:12;;;;;;;13.18;6.50;;;;;;;19.48;100.00;97912.47;4366209;32;20438;-79
2023/07/22 03:37:39;;;;;;;11.98;7.10;;;;;;;19.52;99.78;97917.31;4366837;32;20532;-79
2023/07/22 03:40:11;;;;;;;14.20;7.00;;;;;;;19.35;100.00;97912.59;4366174;32;20146;-79
2023/07/22 03:42:38;;;;;;;13.65;6.18;;;;;;;19.55;97.86;97911.84;4366447;32;20110;-79
2023/07/22 03:45:07;;;;;;;11.70;6.40;;;;;;;20.00;95.22;97905.59;4367040;32;20109;-80
2023/07/22 03:47:34;;;;;;;10.57;5.95;;;;;;;19.37;99.36;97900.25;4367200;32;20111;-79
2023/07/22 03:50:01;;;;;;;11.52;5.62;;;;;;;19.29;100.00;97894.81;4367214;32;20111;-79
2023/07/22 03:52:28;;;;;;;11.40;5.55;;;;;;;19.80;95.79;97902.84;4367138;32;20102;-79
2023/07/22 03:54:55;;;;;;;10.93;5.12;;;;;;;19.80;95.11;97897.63;4367072;32;20154;-79
2023/07/22 03:57:26;;;;;;;12.15;5.60;;;;;;;19.82;95.26;97897.47;4367249;32;20087;-79
2023/07/22 03:59:56;;;;;;;11.80;5.55;;;;;;;20.06;93.70;97900.66;4367426;32;20168;-79
2023/07/22 04:02:24;;;;;;;9.77;4.37;;;;;;;20.18;92.89;97898.81;4366979;32;20091;-79
2023/07/22 04:04:53;;;;;;;11.45;4.50;;;;;;;20.47;89.27;97894.59;4365640;32;20075;-80
2023/07/22 04:07:20;;;;;;;9.32;3.87;;;;;;;20.82;87.51;97900.38;4365912;32;20110;-79
2023/07/22 04:09:47;;;;;;;12.40;4.32;;;;;;;21.37;83.11;97910.34;4366265;32;20178;-79
2023/07/22 04:12:14;;;;;;;11.88;3.90;;;;;;;21.58;79.89;97904.94;4367470;32;20100;-79
2023/07/22 04:14:41;;;;;;;8.23;3.50;;;;;;;21.81;78.60;97900.28;4367899;32;20109;-79
2023/07/22 04:17:08;;;;;;;10.70;4.03;;;;;;;21.05;82.10;97910.53;4367827;32;20153;-79
2023/07/22 04:19:35;;;;;;;9.80;3.50;;;;;;;21.44;79.40;97909.78;4368048;32;20699;-79
2023/07/22 04:22:04;;;;;;;8.15;3.30;;;;;;;21.46;78.39;97902.59;4368387;32;20158;-79
2023/07/22 04:24:31;;;;;;;7.75;3.20;;;;;;;21.99;75.47;97894.28;4368290;32;20457;-79
2023/07/22 04:26:59;;;;;;;7.28;3.20;;;;;;;21.17;80.44;97892.88;4367944;32;20107;-79
2023/07/22 04:29:26;;;;;;;9.45;3.30;;;;;;;21.63;78.55;97894.06;4368197;32;20099;-79
2023/07/22 04:31:58;;;;;;;8.07;3.58;;;;;;;21.76;75.63;97886.72;4368645;32;20075;-79
2023/07/22 04:34:28;;;;;;;7.12;2.80;;;;;;;22.10;74.94;97891.53;4367699;32;20099;-79
2023/07/22 04:36:56;;;;;;;9.88;3.15;;;;;;;22.16;75.27;97910.22;4367850;32;20450;-79
2023/07/22 04:39:23;;;;;;;7.45;3.05;;;;;;;22.59;71.40;97903.59;4366101;32;20552;-79
2023/07/22 04:41:50;;;;;;;8.75;3.40;;;;;;;23.07;70.57;97898.13;4366930;32;20166;-79
2023/07/22 04:44:18;;;;;;;11.10;3.83;;;;;;;23.12;68.85;97896.84;4367985;32;20075;-79
2023/07/22 04:46:45;;;;;;;6.80;3.20;;;;;;;22.53;70.57;97901.50;4368193;32;20446;-79
2023/07/22 04:49:17;;;;;;;8.35;2.90;;;;;;;23.07;68.78;97890.25;4367926;32;20101;-79
2023/07/22 04:51:46;;;;;;;7.40;3.00;;;;;;;23.07;67.64;97897.28;4367456;32;20068;-79
2023/07/22 04:54:13;;;;;;;7.47;2.95;;;;;;;22.81;69.45;97905.84;4368368;32;20110;-80
2023/07/22 04:56:41;;;;;;;6.78;2.78;;;;;;;23.55;66.75;97904.03;4368135;32;20122;-79
2023/07/22 04:59:09;;;;;;;8.15;3.12;;;;;;;23.73;65.19;97906.69;4367446;32;20107;-79
2023/07/22 05:01:36;;;;;;;7.57;3.03;;;;;;;24.55;62.65;97903.66;4368117;32;20158;-79
2023/07/22 05:04:04;;;;;;;7.18;3.15;;;;;;;24.10;63.45;97914.41;4368593;32;20097;-79
2023/07/22 05:06:32;;;;;;;8.13;3.00;;;;;;;24.03;63.46;97919.47;4367923;32;20111;-79
2023/07/22 05:09:00;;;;;;;6.45;2.87;;;;;;;24.13;62.82;97927.25;4367996;32;20067;-79
2023/07/22 05:11:27;;;;;;;8.90;3.08;;;;;;;24.39;62.41;97929.97;4367068;32;20166;-79
2023/07/22 05:13:54;;;;;;;9.10;3.08;;;;;;;24.38;61.07;97938.84;4368111;32;20106;-79
2023/07/22 05:16:21;;;;;;;7.75;3.17;;;;;;;23.86;63.36;97934.31;4367745;32;20134;-79
2023/07/22 05:18:49;;;;;;;8.43;3.10;;;;;;;23.99;62.85;97939.19;4368235;32;20153;-79
2023/07/22 05:21:16;;;;;;;6.03;2.97;;;;;;;23.71;64.09;97927.91;4368264;32;20121;-78
2023/07/22 05:23:43;;;;;;;7.05;3.00;;;;;;;23.70;63.98;97946.50;4367603;32;20162;-79
2023/07/22 05:26:10;;;;;;;9.68;3.15;;;;;;;24.09;62.88;97942.56;4367702;32;20426;-78
2023/07/22 05:28:37;;;;;;;4.97;2.47;;;;;;;23.89;63.08;97941.91;4365708;32;20108;-79
2023/07/22 05:31:04;;;;;;;8.75;3.03;;;;;;;24.22;62.02;97947.44;4368093;32;20150;-79
2023/07/22 05:33:31;;;;;;;10.13;3.00;;;;;;;23.91;63.29;97952.28;4368271;32;20106;-79
2023/07/22 05:35:58;;;;;;;7.18;2.87;;;;;;;24.81;59.75;97957.25;4368230;32;20134;-79
2023/07/22 05:38:27;;;;;;;6.57;2.83;;;;;;;24.92;58.81;97944.75;4367043;32;20728;-80
2023/07/22 05:40:54;;;;;;;6.20;2.78;;;;;;;24.48;59.55;97952.75;4368665;32;20079;-79
2023/07/22 05:43:21;;;;;;;7.90;2.62;;;;;;;24.14;61.22;97957.94;4367319;32;20074;-80
2023/07/22 05:45:48;;;;;;;11.27;3.20;;;;;;;24.36;61.23;97952.19;4368876;32;20073;-79
2023/07/22 05:48:16;;;;;;;6.78;3.00;;;;;;;24.81;59.65;97951.13;4368957;32;20161;-79
2023/07/22 05:50:42;;;;;;;6.78;2.53;;;;;;;25.05;59.19;97964.47;4368633;32;20055;-80
2023/07/22 05:53:09;;;;;;;7.60;2.58;;;;;;;25.73;55.55;97958.25;4367092;32;20110;-79
2023/07/22 05:55:36;;;;;;;6.18;2.42;;;;;;;25.94;54.25;97963.06;4367156;32;20154;-79
2023/07/22 05:58:06;;;;;;;5.50;2.45;;;;;;;25.50;54.80;97958.00;4367887;32;20154;-80
2023/07/22 06:00:34;;;;;;;6.80;2.40;;;;;;;25.39;55.38;97967.06;4367476;32;20091;-79
2023/07/22 06:03:01;;;;;;;6.55;2.42;;;;;;;25.35;55.63;97964.91;4366544;32;20139;-79
2023/07/22 06:05:28;;;;;;;8.75;2.53;;;;;;;;;;4367979;32;20449;-80
2023/07/22 06:07:56;;;;;;;6.22;2.50;;;;;;;25.33;54.90;97972.16;4368355;32;20099;-79
2023/07/22 06:10:24;;;;;;;6.95;2.53;;;;;;;24.52;55.95;97965.47;4366901;32;20133;-79
2023/07/22 06:12:51;;;;;;;4.60;2.12;;;;;;;24.47;57.26;97962.50;4366447;32;20477;-80
2023/07/22 06:15:19;;;;;;;5.87;2.40;;;;;;;24.77;55.14;97963.78;4365916;32;20103;-79
2023/07/22 06:17:46;;;;;;;5.90;2.28;;;;;;;24.50;56.14;97969.25;4365405;32;20108;-79
2023/07/22 06:20:13;;;;;;;7.32;2.08;;;;;;;24.61;55.29;97970.81;4366665;32;20083;-79
2023/07/22 06:22:40;;;;;;;6.32;2.37;;;;;;;24.33;55.45;97959.56;4366913;32;20080;-79
2023/07/22 06:25:08;;;;;;;4.53;2.12;;;;;;;24.00;56.40;97966.37;4367219;32;20776;-79
2023/07/22 06:27:35;;;;;;;6.20;2.28;;;;;;;23.98;56.67;97968.34;4367046;32;20118;-79
2023/07/22 06:30:03;;;;;;;5.30;2.08;;;;;;;23.53;56.31;97963.94;4367445;32;20092;-79
2023/07/22 06:32:30;;;;;;;5.53;2.20;;;;;;;23.82;56.51;97975.13;4366738;32;20106;-80
2023/07/22 06:34:58;;;;;;;4.57;2.20;;;;;;;24.00;56.20;97979.53;4367143;32;20114;-79
2023/07/22 06:37:25;;;;;;;6.25;2.20;;;;;;;24.48;54.88;97985.25;4366507;32;20086;-79
2023/07/22 06:39:53;;;;;;;5.97;2.20;;;;;;;24.13;54.06;97987.88;4367574;32;20091;-79
2023/07/22 06:42:20;;;;;;;6.22;2.20;;;;;;;24.20;53.92;97988.94;4368595;32;20121;-79
2023/07/22 06:44:47;;;;;;;6.35;2.30;;;;;;;24.39;54.79;97978.25;4369267;32;20114;-79
2023/07/22 06:47:14;;;;;;;6.15;2.40;;;;;;;24.90;52.66;97989.78;4367939;32;20166;-80
2023/07/22 06:49:42;;;;;;;5.32;2.22;;;;;;;24.65;54.23;97995.87;4369310;32;20134;-79
2023/07/22 06:52:12;;;;;;;5.43;2.35;;;;;;;25.02;52.58;97999.09;4368071;32;20083;-79
2023/07/22 06:54:40;;;;;;;6.37;2.30;;;;;;;24.64;52.28;97996.87;4368106;32;20102;-80
2023/07/22 06:57:07;;;;;;;4.85;2.22;;;;;;;24.15;54.04;98007.03;4369383;32;20086;-79
2023/07/22 06:59:34;;;;;;;7.12;2.33;;;;;;;23.98;54.29;98008.69;4368916;32;20095;-79
2023/07/22 07:02:02;;;;;;;6.57;2.47;;;;;;;24.09;54.81;98019.00;4368810;32;20079;-80
2023/07/22 07:04:29;;;;;;;6.80;2.55;;;;;;;24.03;54.68;98011.72;4368729;32;20105;-79
2023/07/22 07:06:56;;;;;;;5.22;2.50;;;;;;;24.91;52.93;98011.72;4368432;32;20162;-79
2023/07/22 07:09:23;;;;;;;5.07;2.10;;;;;;;24.64;53.49;98012.69;4367047;32;20114;-79
2023/07/22 07:11:50;;;;;;;4.62;2.30;;;;;;;25.29;50.91;98015.72;4368628;32;20075;-79
2023/07/22 07:14:17;;;;;;;4.93;2.40;;;;;;;25.62;51.28;98020.13;4369178;32;20114;-79
2023/07/22 07:16:44;;;;;;;8.23;1.90;;;;;;;25.72;49.82;98029.75;4368836;32;20109;-79
2023/07/22 07:19:13;;;;;;;7.03;2.22;;;;;;;25.07;49.56;98023.19;4368751;32;20142;-79
2023/07/22 07:21:40;;;;;;;4.78;2.20;;;;;;;25.15;50.32;98032.16;4368728;32;20777;-80
2023/07/22 07:24:07;;;;;;;5.80;2.10;;;;;;;25.99;49.49;98037.41;4369005;32;20098;-79
2023/07/22 07:26:34;;;;;;;4.90;1.95;;;;;;;26.26;48.29;98036.28;4369085;32;20153;-79
2023/07/22 07:29:01;;;;;;;5.72;1.92;;;;;;;26.31;47.32;98038.44;4369082;32;20120;-80
2023/07/22 07:31:28;;;;;;;5.78;1.95;;;;;;;25.71;48.18;98030.75;4369384;32;20079;-79
2023/07/22 07:33:58;;;;;;;4.22;1.87;;;;;;;26.06;46.39;98038.44;4369179;32;20110;-79
2023/07/22 07:36:25;;;;;;;5.12;1.98;;;;;;;26.70;46.46;98039.44;4368884;32;20490;-80
2023/07/22 07:38:53;;;;;;;6.62;2.28;;;;;;;26.61;44.90;98044.91;4368924;32;20166;-79
2023/07/22 07:41:20;;;;;;;4.68;1.83;;;;;;;26.70;45.16;98043.91;4369098;32;20139;-79
2023/07/22 07:43:47;;;;;;;8.23;2.53;;;;;;;26.95;44.01;98044.69;4367372;32;20098;-80
2023/07/22 07:46:21;;;;;;;4.97;2.00;;;;;;;27.30;43.63;98038.97;4368524;32;20125;-79
2023/07/22 07:48:50;;;;;;;4.60;1.92;;;;;;;26.96;44.38;98041.87;4368205;32;20090;-79
2023/07/22 07:51:19;;;;;;;4.05;1.80;;;;;;;27.03;44.44;98058.78;4367930;32;20102;-80
2023/07/22 07:53:47;;;;;;;6.43;2.50;;;;;;;27.26;42.79;98055.41;4368273;32;20442;-79
2023/07/22 07:56:15;;;;;;;4.95;2.00;;;;;;;27.47;43.04;98058.31;4368038;32;20055;-79
2023/07/22 07:58:42;;;;;;;5.20;2.28;;;;;;;27.30;43.87;98060.19;4366816;32;20109;-79
2023/07/22 08:01:09;;;;;;;9.32;2.20;;;;;;;27.73;42.07;98073.94;4366890;32;20135;-79
2023/07/22 08:03:38;;;;;;;4.68;2.05;;;;;;;28.08;41.53;98069.12;4367725;32;20107;-80
2023/07/22 08:06:06;;;;;;;7.95;2.60;;;;;;;26.84;42.72;98071.53;4367957;32;20137;-79
2023/07/22 08:08:33;;;;;;;5.62;2.45;;;;;;;27.01;43.01;98079.28;4367000;32;20154;-79
2023/07/22 08:11:02;;;;;;;6.22;2.67;;;;;;;26.75;43.05;98083.94;4364903;32;20646;-80
2023/07/22 08:13:31;;;;;;;5.32;2.37;;;;;;;24.66;47.25;98064.31;4364857;32;20114;-79
2023/07/22 08:15:58;;;;;;;5.87;2.35;;;;;;;23.66;51.19;98075.03;4365920;32;20437;-79
2023/07/22 08:18:25;;;;;;;4.75;2.08;;;;;;;24.32;50.84;98080.03;4365478;32;20113;-80
2023/07/22 08:20:56;;;;;;;5.72;2.22;;;;;;;24.63;49.44;98069.06;4366012;32;20095;-79
2023/07/22 08:23:24;;;;;;;5.37;2.42;;;;;;;24.53;49.57;98085.81;4365744;32;20425;-79
2023/07/22 08:25:51;;;;;;;7.45;3.03;;;;;;;25.76;48.03;98079.50;4367076;32;20095;-80
2023/07/22 08:28:18;;;;;;;8.50;2.10;;;;;;;26.08;48.93;98078.75;4366980;32;20091;-79
2023/07/22 08:30:45;;;;;;;5.60;2.40;;;;;;;26.20;46.73;98090.66;4364933;32;20139;-79
2023/07/22 08:33:12;;;;;;;6.75;2.40;;;;;;;26.33;46.68;98095.47;4364228;32;20064;-79
2023/07/22 08:35:42;;;;;;;6.68;2.42;;;;;;;26.27;47.17;98092.66;4366276;32;20098;-79
2023/07/22 08:38:09;;;;;;;4.47;2.05;;;;;;;26.01;47.80;98098.06;4365811;32;20174;-79
2023/07/22 08:40:37;;;;;;;5.07;2.30;;;;;;;25.66;46.24;98102.53;4365715;32;20692;-80
2023/07/22 08:43:06;;;;;;;6.32;2.50;;;;;;;25.01;47.17;98083.69;4366134;32;20095;-80
2023/07/22 08:45:36;;;;;;;6.62;2.47;;;;;;;25.01;48.58;98102.19;4366977;32;20098;-80
2023/07/22 08:48:09;;;;;;;5.57;2.47;;;;;;;25.62;48.79;98099.38;4365802;32;20087;-78
2023/07/22 08:50:46;;;;;;;6.70;2.35;;;;;;;25.66;50.17;98113.94;4365193;32;20450;-77
2023/07/22 08:53:13;;;;;;;7.60;2.22;;;;;;;25.30;46.56;98104.50;4364661;32;20166;-78
2023/07/22 08:55:40;;;;;;;6.22;2.20;;;;;;;25.06;46.41;98110.47;4364941;32;20116;-77
2023/07/22 08:58:10;;;;;;;5.68;2.40;;;;;;;25.40;48.03;98102.56;4363979;32;20090;-77
2023/07/22 09:00:39;;;;;;;5.90;2.25;;;;;;;26.51;44.87;98111.22;4365134;32;20111;-78
2023/07/22 09:03:06;;;;;;;4.90;2.08;;;;;;;27.35;42.42;98102.91;4363890;32;20159;-78
2023/07/22 09:05:35;;;;;;;3.58;2.10;;;;;;;27.07;41.47;98101.63;4365376;32;20149;-78
2023/07/22 09:08:04;;;;;;;5.50;2.15;;;;;;;26.81;41.95;98113.22;4363820;32;20575;-78
2023/07/22 09:10:31;;;;;;;4.97;2.20;;;;;;;26.96;41.31;98102.78;4364027;32;20460;-78
2023/07/22 09:13:00;;;;;;;5.85;2.42;;;;;;;27.09;41.75;98110.22;4365155;32;20166;-78
2023/07/22 09:15:28;;;;;;;5.65;2.25;;;;;;;27.29;41.06;98090.31;4363844;32;20114;-78
2023/07/22 09:17:55;;;;;;;6.10;2.47;;;;;;;27.22;41.94;98115.00;4363938;32;20170;-78
2023/07/22 09:20:22;;;;;;;4.60;2.00;;;;;;;27.81;40.02;98110.19;4365149;32;20427;-78
2023/07/22 09:22:51;;;;;;;5.10;2.20;;;;;;;27.99;39.45;98115.25;4364809;32;20486;-78
2023/07/22 09:25:38;;;;;;;6.12;2.30;;;;;;;27.99;39.76;98121.38;4364345;32;20113;-78
2023/07/22 09:28:05;;;;;;;8.25;2.60;;;;;;;27.64;40.60;98118.16;4364863;32;20385;-78
2023/07/22 09:30:39;;;;;;;6.10;2.15;;;;;;;28.48;40.67;98116.59;4363929;32;20059;-78
2023/07/22 09:33:08;;;;;;;5.45;2.20;;;;;;;28.11;36.57;98111.19;4364976;32;20378;-78
2023/07/22 09:35:47;;;;;;;4.95;2.35;;;;;;;28.35;38.37;98112.91;4363653;32;20119;-79
2023/07/22 09:38:17;;;;;;;4.93;2.30;;;;;;;28.53;38.84;98121.41;4364890;32;20165;-78
2023/07/22 09:40:44;;;;;;;7.15;2.50;;;;;;;28.36;40.74;98112.72;4364998;32;20539;-78
2023/07/22 09:43:14;;;;;;;6.45;2.42;;;;;;;27.71;41.44;98104.28;4364472;32;20123;-78
2023/07/22 09:45:41;;;;;;;5.35;2.20;;;;;;;27.87;39.04;98105.03;4365021;32;20109;-78
2023/07/22 09:48:09;;;;;;;5.28;2.30;;;;;;;27.92;38.19;98100.03;4364715;32;20162;-78
2023/07/22 09:50:36;;;;;;;5.72;2.20;;;;;;;27.71;37.67;98105.09;4364565;32;20166;-78
2023/07/22 09:53:04;;;;;;;3.78;1.87;;;;;;;27.48;38.32;98101.53;4364713;32;20142;-78
2023/07/22 09:55:32;;;;;;;5.60;2.10;;;;;;;27.50;39.50;98104.81;4363358;32;20129;-78
2023/07/22 09:58:01;;;;;;;6.53;2.05;;;;;;;27.42;39.51;98097.72;4364258;32;20125;-78
2023/07/22 10:00:30;;;;;;;4.32;2.00;;;;;;;27.83;38.21;98098.41;4364433;32;20141;-79
2023/07/22 10:02:58;;;;;;;5.20;1.90;;;;;;;27.81;36.35;98084.50;4362932;32;20107;-79
2023/07/22 10:05:26;;;;;;;6.03;2.15;;;;;;;27.42;36.16;98081.00;4364659;32;20094;-78
2023/07/22 10:07:56;;;;;;;4.65;1.70;;;;;;;26.98;36.27;98074.28;4364338;32;20104;-78
2023/07/22 10:10:31;;;;;;;4.55;2.00;;;;;;;27.33;36.80;98081.06;4362847;32;20500;-79
2023/07/22 10:12:58;;;;;;;4.85;2.20;;;;;;;27.63;35.45;98083.91;4364238;32;20166;-78
2023/07/22 10:15:27;;;;;;;4.35;1.95;;;;;;;27.34;37.40;98089.81;4364644;32;20147;-79
2023/07/22 10:17:55;;;;;;;4.18;1.77;;;;;;;28.25;36.25;98097.19;4365724;32;20121;-79
2023/07/22 10:20:24;;;;;;;4.60;2.00;;;;;;;28.66;34.33;98083.62;4364964;32;20142;-78
2023/07/22 10:22:51;;;;;;;5.72;2.10;;;;;;;29.03;33.75;98098.75;4364740;32;20151;-78
2023/07/22 10:25:19;;;;;;;4.50;1.70;;;;;;;28.60;34.17;98082.50;4364551;32;20422;-78
2023/07/22 10:27:48;;;;;;;5.62;2.00;;;;;;;28.87;34.86;98094.38;4366001;32;20149;-79
2023/07/22 10:30:17;;;;;;;3.87;1.80;;;;;;;29.20;34.88;98078.97;4364834;32;20099;-78
2023/07/22 10:32:46;;;;;;;8.60;2.00;;;;;;;28.99;34.11;98092.16;4365566;32;20100;-78
2023/07/22 10:35:32;;;;;;;5.97;2.20;;;;;;;28.54;36.11;98093.84;4364891;32;20103;-78
2023/07/22 10:38:13;;;;;;;4.80;1.90;;;;;;;28.56;35.23;98098.97;4365567;32;20113;-79
2023/07/22 10:40:51;;;;;;;3.87;1.98;;;;;;;29.07;35.13;98105.34;4364943;32;20079;-78
2023/07/22 10:43:29;;;;;;;5.18;2.35;;;;;;;29.10;33.93;98102.34;4365974;32;20122;-78
2023/07/22 10:45:58;;;;;;;5.62;2.05;;;;;;;29.14;34.04;98097.47;4365655;32;20390;-79
2023/07/22 10:48:29;;;;;;;4.87;2.10;;;;;;;29.37;33.22;98103.56;4365675;32;20159;-78
2023/07/22 10:51:06;;;;;;;5.40;2.15;;;;;;;29.62;34.24;98101.44;4365968;32;20419;-78
2023/07/22 10:53:40;;;;;;;4.57;2.17;;;;;;;29.17;33.70;98116.53;4365498;32;20126;-79
2023/07/22 10:56:17;;;;;;;5.78;2.00;;;;;;;28.85;34.05;98111.50;4365762;32;20184;-78
2023/07/22 10:58:43;;;;;;;;;;;;;;;28.36;34.75;98104.75;4366040;32;20090;-78
2023/07/22 11:01:28;;;;;;;6.68;2.53;;;;;;;29.05;34.76;98102.87;4365689;32;20034;-79
2023/07/22 11:04:17;;;;;;;5.45;2.30;;;;;;;29.66;33.74;98092.91;4365837;32;20099;-78
2023/07/22 11:06:44;;;;;;;5.15;2.17;;;;;;;29.44;33.86;98095.66;4365517;32;20102;-79
2023/07/22 11:12:08;;;;;;;5.60;2.30;;;;;;;29.35;33.61;98097.59;4365762;32;20135;-78
2023/07/22 11:14:38;;;;;;;5.35;2.30;;;;;;;29.76;34.12;98091.78;4363967;32;20170;-79
2023/07/22 11:17:08;;;;;;;4.35;2.08;;;;;;;29.42;33.38;98092.34;4365776;32;20090;-79
2023/07/22 11:19:35;;;;;;;6.28;2.33;;;;;;;29.16;34.33;98079.53;4365614;32;20366;-79
2023/07/22 11:22:02;;;;;;;5.65;2.08;;;;;;;29.04;35.80;98087.97;4365311;32;20125;-79
2023/07/22 11:24:30;;;;;;;5.45;2.28;;;;;;;29.18;35.62;98090.81;4365526;32;20715;-78
2023/07/22 11:26:57;;;;;;;5.90;2.35;;;;;;;29.35;34.61;98084.31;4365411;32;20164;-80
2023/07/22 11:29:23;;;;;;;5.03;2.10;;;;;;;29.56;34.72;98076.44;4364313;32;20378;-78
2023/07/22 11:31:51;;;;;;;3.97;1.80;;;;;;;29.67;35.39;98086.59;4365724;32;20163;-78
2023/07/22 11:34:20;;;;;;;7.95;2.30;;;;;;;29.22;34.22;98076.97;4365114;32;20453;-79
2023/07/22 11:36:48;;;;;;;6.10;2.30;;;;;;;28.68;35.29;98068.34;4365633;32;20527;-78